Mount Vernon, Arkansas
Current Conditions -  °F | °C
As of 6:58 AM on Thursday 27 Nov 2014 (Local Time) from KLRF Reporting Station
Clear Clear  
Wind Chill: 27°   Ceiling: Unl
Heat Index: 33°   Visibility: 10mi
Dew Point: 25°   Wind: 6mph
Humidity: 72%   Direction: 330°NNW
Pressure: 30.48"   Gusts: NA
Location:  35.23°N, 92.12°W
Report Text: KLRF 271258Z AUTO 33005KT 10SM CLR 01/M04 A3048 RMK AO2 SLP327 T00051041 $
Loading
Personal Weather Stations






























Interactive Weather Map New forecast layout! Learn more

10-Day Weather Forecast

Advertisements
Track Severe Weather on mobile